sensor_id;sensor_type;location;lat;lon;timestamp;P1;durP1;ratioP1;P2;durP2;ratioP2
66970;SDS011;53901;51.466;-2.588;2022-12-07T00:01:07;21.58;;;10.70;;
66970;SDS011;53901;51.466;-2.588;2022-12-07T00:03:39;23.90;;;11.88;;
66970;SDS011;53901;51.466;-2.588;2022-12-07T00:06:05;21.65;;;11.05;;
66970;SDS011;53901;51.466;-2.588;2022-12-07T00:08:32;22.33;;;11.07;;
66970;SDS011;53901;51.466;-2.588;2022-12-07T00:11:01;21.50;;;11.00;;
66970;SDS011;53901;51.466;-2.588;2022-12-07T00:13:28;20.42;;;11.05;;
66970;SDS011;53901;51.466;-2.588;2022-12-07T00:15:54;21.35;;;10.38;;
66970;SDS011;53901;51.466;-2.588;2022-12-07T00:18:20;19.95;;;10.57;;
66970;SDS011;53901;51.466;-2.588;2022-12-07T00:20:45;20.27;;;10.18;;
66970;SDS011;53901;51.466;-2.588;2022-12-07T00:23:11;26.23;;;11.50;;
66970;SDS011;53901;51.466;-2.588;2022-12-07T00:25:36;21.17;;;11.55;;
66970;SDS011;53901;51.466;-2.588;2022-12-07T00:28:01;21.35;;;10.43;;
66970;SDS011;53901;51.466;-2.588;2022-12-07T00:30:27;19.83;;;10.23;;
66970;SDS011;53901;51.466;-2.588;2022-12-07T00:32:52;16.48;;;10.18;;
66970;SDS011;53901;51.466;-2.588;2022-12-07T00:35:18;23.58;;;10.77;;
66970;SDS011;53901;51.466;-2.588;2022-12-07T00:37:43;27.27;;;10.57;;
66970;SDS011;53901;51.466;-2.588;2022-12-07T00:40:09;21.05;;;11.20;;
66970;SDS011;53901;51.466;-2.588;2022-12-07T00:42:34;20.10;;;11.05;;
66970;SDS011;53901;51.466;-2.588;2022-12-07T00:45:00;20.35;;;9.85;;
66970;SDS011;53901;51.466;-2.588;2022-12-07T00:47:25;29.75;;;10.63;;
66970;SDS011;53901;51.466;-2.588;2022-12-07T00:49:50;25.65;;;11.43;;
66970;SDS011;53901;51.466;-2.588;2022-12-07T00:52:16;25.52;;;12.25;;
66970;SDS011;53901;51.466;-2.588;2022-12-07T00:54:41;20.48;;;10.63;;
66970;SDS011;53901;51.466;-2.588;2022-12-07T00:57:06;21.85;;;11.45;;
66970;SDS011;53901;51.466;-2.588;2022-12-07T00:59:32;25.90;;;11.65;;
66970;SDS011;53901;51.466;-2.588;2022-12-07T01:01:57;24.23;;;11.80;;
66970;SDS011;53901;51.466;-2.588;2022-12-07T01:04:22;24.38;;;10.98;;
66970;SDS011;53901;51.466;-2.588;2022-12-07T01:06:51;25.42;;;12.30;;
66970;SDS011;53901;51.466;-2.588;2022-12-07T01:09:16;27.25;;;12.00;;
66970;SDS011;53901;51.466;-2.588;2022-12-07T01:11:42;27.48;;;11.20;;
66970;SDS011;53901;51.466;-2.588;2022-12-07T01:14:08;22.02;;;12.05;;
66970;SDS011;53901;51.466;-2.588;2022-12-07T01:16:33;23.38;;;10.63;;
66970;SDS011;53901;51.466;-2.588;2022-12-07T01:18:59;28.15;;;10.90;;
66970;SDS011;53901;51.466;-2.588;2022-12-07T01:21:26;23.08;;;10.82;;
66970;SDS011;53901;51.466;-2.588;2022-12-07T01:23:59;18.70;;;10.38;;
66970;SDS011;53901;51.466;-2.588;2022-12-07T01:26:25;22.80;;;10.95;;
66970;SDS011;53901;51.466;-2.588;2022-12-07T01:28:52;23.08;;;11.63;;
66970;SDS011;53901;51.466;-2.588;2022-12-07T01:31:20;28.23;;;12.32;;
66970;SDS011;53901;51.466;-2.588;2022-12-07T01:33:47;22.63;;;11.48;;
66970;SDS011;53901;51.466;-2.588;2022-12-07T01:36:16;24.15;;;11.75;;
66970;SDS011;53901;51.466;-2.588;2022-12-07T01:38:49;25.73;;;12.25;;
66970;SDS011;53901;51.466;-2.588;2022-12-07T01:41:18;23.15;;;12.35;;
66970;SDS011;53901;51.466;-2.588;2022-12-07T01:46:36;24.23;;;12.45;;
66970;SDS011;53901;51.466;-2.588;2022-12-07T01:49:03;26.92;;;12.98;;
66970;SDS011;53901;51.466;-2.588;2022-12-07T01:51:30;27.65;;;12.52;;
66970;SDS011;53901;51.466;-2.588;2022-12-07T01:53:56;24.30;;;11.93;;
66970;SDS011;53901;51.466;-2.588;2022-12-07T01:56:22;28.33;;;12.35;;
66970;SDS011;53901;51.466;-2.588;2022-12-07T01:58:49;25.15;;;12.93;;
66970;SDS011;53901;51.466;-2.588;2022-12-07T02:01:14;20.85;;;12.25;;
66970;SDS011;53901;51.466;-2.588;2022-12-07T02:03:41;20.35;;;11.55;;
66970;SDS011;53901;51.466;-2.588;2022-12-07T02:06:07;24.63;;;11.98;;
66970;SDS011;53901;51.466;-2.588;2022-12-07T02:08:33;24.15;;;11.65;;
66970;SDS011;53901;51.466;-2.588;2022-12-07T02:11:00;26.08;;;12.68;;
66970;SDS011;53901;51.466;-2.588;2022-12-07T02:13:26;23.58;;;11.38;;
66970;SDS011;53901;51.466;-2.588;2022-12-07T02:18:44;22.55;;;11.45;;
66970;SDS011;53901;51.466;-2.588;2022-12-07T02:21:39;20.88;;;11.48;;
66970;SDS011;53901;51.466;-2.588;2022-12-07T02:29:45;26.88;;;11.32;;
66970;SDS011;53901;51.466;-2.588;2022-12-07T02:32:23;22.30;;;10.13;;
66970;SDS011;53901;51.466;-2.588;2022-12-07T02:35:06;21.88;;;10.82;;
66970;SDS011;53901;51.466;-2.588;2022-12-07T02:40:31;19.83;;;10.93;;
66970;SDS011;53901;51.466;-2.588;2022-12-07T02:43:05;20.40;;;10.95;;
66970;SDS011;53901;51.466;-2.588;2022-12-07T02:45:34;23.55;;;11.20;;
66970;SDS011;53901;51.466;-2.588;2022-12-07T02:48:00;18.15;;;10.40;;
66970;SDS011;53901;51.466;-2.588;2022-12-07T02:50:27;21.02;;;10.75;;
66970;SDS011;53901;51.466;-2.588;2022-12-07T02:52:53;22.35;;;11.00;;
66970;SDS011;53901;51.466;-2.588;2022-12-07T02:55:19;23.73;;;11.07;;
66970;SDS011;53901;51.466;-2.588;2022-12-07T03:00:22;18.52;;;10.13;;
66970;SDS011;53901;51.466;-2.588;2022-12-07T03:05:36;20.50;;;10.43;;
66970;SDS011;53901;51.466;-2.588;2022-12-07T03:16:09;20.65;;;10.38;;
66970;SDS011;53901;51.466;-2.588;2022-12-07T03:21:28;18.55;;;10.70;;
66970;SDS011;53901;51.466;-2.588;2022-12-07T03:23:58;18.80;;;10.45;;
66970;SDS011;53901;51.466;-2.588;2022-12-07T03:26:28;19.40;;;9.70;;
66970;SDS011;53901;51.466;-2.588;2022-12-07T03:28:58;20.27;;;9.45;;
66970;SDS011;53901;51.466;-2.588;2022-12-07T03:31:31;17.70;;;10.27;;
66970;SDS011;53901;51.466;-2.588;2022-12-07T03:34:12;17.83;;;9.32;;
66970;SDS011;53901;51.466;-2.588;2022-12-07T03:41:48;23.52;;;11.60;;
66970;SDS011;53901;51.466;-2.588;2022-12-07T03:44:14;23.88;;;10.25;;
66970;SDS011;53901;51.466;-2.588;2022-12-07T03:47:00;16.67;;;10.13;;
66970;SDS011;53901;51.466;-2.588;2022-12-07T03:54:57;22.08;;;8.80;;
66970;SDS011;53901;51.466;-2.588;2022-12-07T03:57:26;22.10;;;9.52;;
66970;SDS011;53901;51.466;-2.588;2022-12-07T03:59:53;18.60;;;8.98;;
66970;SDS011;53901;51.466;-2.588;2022-12-07T04:02:19;17.48;;;9.35;;
66970;SDS011;53901;51.466;-2.588;2022-12-07T04:04:45;22.38;;;9.35;;
66970;SDS011;53901;51.466;-2.588;2022-12-07T04:07:10;17.77;;;9.55;;
66970;SDS011;53901;51.466;-2.588;2022-12-07T04:09:36;18.42;;;9.15;;
66970;SDS011;53901;51.466;-2.588;2022-12-07T04:12:01;18.73;;;9.25;;
66970;SDS011;53901;51.466;-2.588;2022-12-07T04:14:27;16.00;;;9.32;;
66970;SDS011;53901;51.466;-2.588;2022-12-07T04:16:56;16.70;;;8.70;;
66970;SDS011;53901;51.466;-2.588;2022-12-07T04:19:26;21.48;;;8.90;;
66970;SDS011;53901;51.466;-2.588;2022-12-07T04:21:53;14.55;;;8.25;;
66970;SDS011;53901;51.466;-2.588;2022-12-07T04:24:18;19.58;;;9.40;;
66970;SDS011;53901;51.466;-2.588;2022-12-07T04:26:45;17.25;;;8.23;;
66970;SDS011;53901;51.466;-2.588;2022-12-07T04:29:10;16.30;;;8.15;;
66970;SDS011;53901;51.466;-2.588;2022-12-07T04:31:37;16.83;;;8.60;;
66970;SDS011;53901;51.466;-2.588;2022-12-07T04:34:02;17.10;;;8.85;;
66970;SDS011;53901;51.466;-2.588;2022-12-07T04:36:28;17.95;;;8.70;;
66970;SDS011;53901;51.466;-2.588;2022-12-07T04:38:54;20.85;;;9.48;;
66970;SDS011;53901;51.466;-2.588;2022-12-07T04:41:20;19.42;;;8.68;;
66970;SDS011;53901;51.466;-2.588;2022-12-07T04:43:51;20.73;;;8.63;;
66970;SDS011;53901;51.466;-2.588;2022-12-07T04:46:27;16.27;;;8.55;;
66970;SDS011;53901;51.466;-2.588;2022-12-07T04:48:54;21.40;;;8.73;;
66970;SDS011;53901;51.466;-2.588;2022-12-07T04:51:21;18.75;;;8.88;;
66970;SDS011;53901;51.466;-2.588;2022-12-07T04:53:51;21.08;;;9.90;;
66970;SDS011;53901;51.466;-2.588;2022-12-07T04:56:17;19.73;;;10.18;;
66970;SDS011;53901;51.466;-2.588;2022-12-07T04:58:43;17.58;;;8.52;;
66970;SDS011;53901;51.466;-2.588;2022-12-07T05:01:10;16.73;;;9.27;;
66970;SDS011;53901;51.466;-2.588;2022-12-07T05:03:36;21.05;;;10.38;;
66970;SDS011;53901;51.466;-2.588;2022-12-07T05:06:02;20.90;;;8.98;;
66970;SDS011;53901;51.466;-2.588;2022-12-07T05:08:27;19.38;;;9.52;;
66970;SDS011;53901;51.466;-2.588;2022-12-07T05:10:53;17.48;;;9.50;;
66970;SDS011;53901;51.466;-2.588;2022-12-07T05:13:18;21.13;;;9.82;;
66970;SDS011;53901;51.466;-2.588;2022-12-07T05:15:43;17.10;;;9.32;;
66970;SDS011;53901;51.466;-2.588;2022-12-07T05:18:09;23.10;;;9.75;;
66970;SDS011;53901;51.466;-2.588;2022-12-07T05:20:37;18.48;;;9.18;;
66970;SDS011;53901;51.466;-2.588;2022-12-07T05:23:03;23.80;;;9.45;;
66970;SDS011;53901;51.466;-2.588;2022-12-07T05:25:29;23.95;;;10.18;;
66970;SDS011;53901;51.466;-2.588;2022-12-07T05:27:54;20.08;;;10.13;;
66970;SDS011;53901;51.466;-2.588;2022-12-07T05:30:21;21.00;;;9.68;;
66970;SDS011;53901;51.466;-2.588;2022-12-07T05:32:47;19.52;;;9.05;;
66970;SDS011;53901;51.466;-2.588;2022-12-07T05:35:12;17.65;;;9.48;;
66970;SDS011;53901;51.466;-2.588;2022-12-07T05:37:38;17.33;;;10.07;;
66970;SDS011;53901;51.466;-2.588;2022-12-07T05:40:04;18.75;;;9.57;;
66970;SDS011;53901;51.466;-2.588;2022-12-07T05:42:30;22.13;;;10.27;;
66970;SDS011;53901;51.466;-2.588;2022-12-07T05:44:55;18.45;;;9.75;;
66970;SDS011;53901;51.466;-2.588;2022-12-07T05:47:21;19.10;;;9.85;;
66970;SDS011;53901;51.466;-2.588;2022-12-07T05:49:46;19.88;;;10.15;;
66970;SDS011;53901;51.466;-2.588;2022-12-07T05:52:12;19.33;;;10.52;;
66970;SDS011;53901;51.466;-2.588;2022-12-07T05:54:37;19.95;;;10.05;;
66970;SDS011;53901;51.466;-2.588;2022-12-07T05:57:02;21.58;;;10.52;;
66970;SDS011;53901;51.466;-2.588;2022-12-07T05:59:28;20.08;;;10.98;;
66970;SDS011;53901;51.466;-2.588;2022-12-07T06:04:19;19.63;;;10.88;;
66970;SDS011;53901;51.466;-2.588;2022-12-07T06:06:45;23.48;;;11.32;;
66970;SDS011;53901;51.466;-2.588;2022-12-07T06:09:11;18.92;;;10.60;;
66970;SDS011;53901;51.466;-2.588;2022-12-07T06:11:37;22.55;;;11.95;;
66970;SDS011;53901;51.466;-2.588;2022-12-07T06:14:22;25.73;;;9.90;;
66970;SDS011;53901;51.466;-2.588;2022-12-07T06:16:47;20.55;;;10.48;;
66970;SDS011;53901;51.466;-2.588;2022-12-07T06:19:13;20.92;;;10.77;;
66970;SDS011;53901;51.466;-2.588;2022-12-07T06:21:38;21.27;;;10.60;;
66970;SDS011;53901;51.466;-2.588;2022-12-07T06:24:04;24.33;;;11.50;;
66970;SDS011;53901;51.466;-2.588;2022-12-07T06:26:30;26.10;;;10.85;;
66970;SDS011;53901;51.466;-2.588;2022-12-07T06:28:55;26.05;;;14.10;;
66970;SDS011;53901;51.466;-2.588;2022-12-07T06:31:21;21.67;;;11.32;;
66970;SDS011;53901;51.466;-2.588;2022-12-07T06:33:46;27.10;;;11.73;;
66970;SDS011;53901;51.466;-2.588;2022-12-07T06:36:12;21.65;;;10.70;;
66970;SDS011;53901;51.466;-2.588;2022-12-07T06:38:37;22.38;;;11.80;;
66970;SDS011;53901;51.466;-2.588;2022-12-07T06:41:03;21.75;;;11.38;;
66970;SDS011;53901;51.466;-2.588;2022-12-07T06:43:29;22.10;;;12.27;;
66970;SDS011;53901;51.466;-2.588;2022-12-07T06:45:54;21.90;;;11.32;;
66970;SDS011;53901;51.466;-2.588;2022-12-07T06:48:20;23.58;;;11.10;;
66970;SDS011;53901;51.466;-2.588;2022-12-07T06:50:45;23.67;;;11.77;;
66970;SDS011;53901;51.466;-2.588;2022-12-07T06:53:11;25.95;;;11.00;;
66970;SDS011;53901;51.466;-2.588;2022-12-07T06:55:36;23.00;;;10.88;;
66970;SDS011;53901;51.466;-2.588;2022-12-07T06:58:02;20.77;;;11.10;;
66970;SDS011;53901;51.466;-2.588;2022-12-07T07:00:27;22.10;;;10.75;;
66970;SDS011;53901;51.466;-2.588;2022-12-07T07:02:53;24.92;;;11.70;;
66970;SDS011;53901;51.466;-2.588;2022-12-07T07:05:18;20.25;;;9.70;;
66970;SDS011;53901;51.466;-2.588;2022-12-07T07:07:46;23.92;;;11.38;;
66970;SDS011;53901;51.466;-2.588;2022-12-07T07:10:13;21.58;;;10.98;;
66970;SDS011;53901;51.466;-2.588;2022-12-07T07:12:38;22.33;;;12.55;;
66970;SDS011;53901;51.466;-2.588;2022-12-07T07:15:04;20.48;;;11.07;;
66970;SDS011;53901;51.466;-2.588;2022-12-07T07:17:29;21.80;;;11.95;;
66970;SDS011;53901;51.466;-2.588;2022-12-07T07:19:55;25.33;;;12.02;;
66970;SDS011;53901;51.466;-2.588;2022-12-07T07:22:20;22.10;;;11.00;;
66970;SDS011;53901;51.466;-2.588;2022-12-07T07:24:46;23.75;;;11.68;;
66970;SDS011;53901;51.466;-2.588;2022-12-07T07:27:11;25.15;;;11.65;;
66970;SDS011;53901;51.466;-2.588;2022-12-07T07:29:36;20.88;;;10.85;;
66970;SDS011;53901;51.466;-2.588;2022-12-07T07:32:02;21.13;;;11.25;;
66970;SDS011;53901;51.466;-2.588;2022-12-07T07:34:27;24.13;;;11.88;;
66970;SDS011;53901;51.466;-2.588;2022-12-07T07:36:52;27.60;;;13.32;;
66970;SDS011;53901;51.466;-2.588;2022-12-07T07:39:18;25.27;;;13.27;;
66970;SDS011;53901;51.466;-2.588;2022-12-07T07:41:43;22.95;;;11.82;;
66970;SDS011;53901;51.466;-2.588;2022-12-07T07:44:09;24.70;;;12.55;;
66970;SDS011;53901;51.466;-2.588;2022-12-07T07:46:35;36.60;;;16.90;;
66970;SDS011;53901;51.466;-2.588;2022-12-07T07:49:00;25.08;;;13.23;;
66970;SDS011;53901;51.466;-2.588;2022-12-07T07:51:25;52.58;;;24.25;;
66970;SDS011;53901;51.466;-2.588;2022-12-07T07:53:51;45.60;;;20.80;;
66970;SDS011;53901;51.466;-2.588;2022-12-07T07:56:16;35.58;;;14.73;;
66970;SDS011;53901;51.466;-2.588;2022-12-07T07:58:42;22.45;;;12.85;;
66970;SDS011;53901;51.466;-2.588;2022-12-07T08:01:07;31.52;;;16.08;;
66970;SDS011;53901;51.466;-2.588;2022-12-07T08:03:32;38.03;;;17.20;;
66970;SDS011;53901;51.466;-2.588;2022-12-07T08:05:58;35.13;;;18.05;;
66970;SDS011;53901;51.466;-2.588;2022-12-07T08:08:23;43.33;;;18.60;;
66970;SDS011;53901;51.466;-2.588;2022-12-07T08:10:49;27.08;;;15.02;;
66970;SDS011;53901;51.466;-2.588;2022-12-07T08:13:15;32.60;;;15.35;;
66970;SDS011;53901;51.466;-2.588;2022-12-07T08:15:42;27.10;;;13.23;;
66970;SDS011;53901;51.466;-2.588;2022-12-07T08:18:09;31.20;;;13.27;;
66970;SDS011;53901;51.466;-2.588;2022-12-07T08:20:35;24.02;;;12.32;;
66970;SDS011;53901;51.466;-2.588;2022-12-07T08:23:01;25.67;;;12.88;;
66970;SDS011;53901;51.466;-2.588;2022-12-07T08:25:27;26.95;;;13.00;;
66970;SDS011;53901;51.466;-2.588;2022-12-07T08:27:53;28.83;;;13.07;;
66970;SDS011;53901;51.466;-2.588;2022-12-07T08:30:21;31.48;;;14.10;;
66970;SDS011;53901;51.466;-2.588;2022-12-07T08:32:47;24.90;;;12.82;;
66970;SDS011;53901;51.466;-2.588;2022-12-07T08:35:13;25.55;;;12.90;;
66970;SDS011;53901;51.466;-2.588;2022-12-07T08:37:39;28.98;;;13.98;;
66970;SDS011;53901;51.466;-2.588;2022-12-07T08:40:05;25.63;;;13.80;;
66970;SDS011;53901;51.466;-2.588;2022-12-07T08:42:32;26.63;;;13.18;;
66970;SDS011;53901;51.466;-2.588;2022-12-07T08:45:05;27.05;;;13.65;;
66970;SDS011;53901;51.466;-2.588;2022-12-07T08:47:32;27.83;;;13.88;;
66970;SDS011;53901;51.466;-2.588;2022-12-07T08:49:59;28.85;;;14.10;;
66970;SDS011;53901;51.466;-2.588;2022-12-07T08:52:28;27.05;;;14.45;;
66970;SDS011;53901;51.466;-2.588;2022-12-07T08:54:54;34.70;;;13.57;;
66970;SDS011;53901;51.466;-2.588;2022-12-07T08:57:21;28.48;;;14.30;;
66970;SDS011;53901;51.466;-2.588;2022-12-07T08:59:46;25.85;;;13.45;;
66970;SDS011;53901;51.466;-2.588;2022-12-07T09:02:11;25.17;;;12.75;;
66970;SDS011;53901;51.466;-2.588;2022-12-07T09:04:37;28.65;;;13.15;;
66970;SDS011;53901;51.466;-2.588;2022-12-07T09:07:02;25.35;;;14.10;;
66970;SDS011;53901;51.466;-2.588;2022-12-07T09:09:29;24.80;;;13.18;;
66970;SDS011;53901;51.466;-2.588;2022-12-07T09:11:54;29.67;;;13.15;;
66970;SDS011;53901;51.466;-2.588;2022-12-07T09:14:20;25.98;;;14.23;;
66970;SDS011;53901;51.466;-2.588;2022-12-07T09:16:45;29.55;;;13.88;;
66970;SDS011;53901;51.466;-2.588;2022-12-07T09:19:10;31.70;;;13.30;;
66970;SDS011;53901;51.466;-2.588;2022-12-07T09:21:36;40.85;;;16.10;;
66970;SDS011;53901;51.466;-2.588;2022-12-07T09:24:01;27.88;;;14.50;;
66970;SDS011;53901;51.466;-2.588;2022-12-07T09:26:27;32.72;;;15.75;;
66970;SDS011;53901;51.466;-2.588;2022-12-07T09:28:52;31.90;;;16.08;;
66970;SDS011;53901;51.466;-2.588;2022-12-07T09:31:17;30.88;;;15.85;;
66970;SDS011;53901;51.466;-2.588;2022-12-07T09:33:43;48.80;;;16.77;;
66970;SDS011;53901;51.466;-2.588;2022-12-07T09:36:09;28.83;;;15.75;;
66970;SDS011;53901;51.466;-2.588;2022-12-07T09:38:35;28.48;;;14.07;;
66970;SDS011;53901;51.466;-2.588;2022-12-07T09:41:04;27.48;;;14.18;;
66970;SDS011;53901;51.466;-2.588;2022-12-07T09:43:30;26.73;;;12.40;;
66970;SDS011;53901;51.466;-2.588;2022-12-07T09:45:56;25.27;;;12.38;;
66970;SDS011;53901;51.466;-2.588;2022-12-07T09:48:29;22.88;;;12.02;;
66970;SDS011;53901;51.466;-2.588;2022-12-07T09:51:02;26.35;;;11.90;;
66970;SDS011;53901;51.466;-2.588;2022-12-07T09:53:30;21.75;;;10.18;;
66970;SDS011;53901;51.466;-2.588;2022-12-07T09:55:58;15.43;;;9.68;;
66970;SDS011;53901;51.466;-2.588;2022-12-07T09:58:24;26.10;;;11.85;;
66970;SDS011;53901;51.466;-2.588;2022-12-07T10:01:05;23.75;;;11.07;;
66970;SDS011;53901;51.466;-2.588;2022-12-07T10:03:40;21.88;;;11.10;;
66970;SDS011;53901;51.466;-2.588;2022-12-07T10:06:09;29.95;;;14.95;;
66970;SDS011;53901;51.466;-2.588;2022-12-07T10:08:36;32.85;;;15.68;;
66970;SDS011;53901;51.466;-2.588;2022-12-07T10:11:01;32.13;;;15.43;;
66970;SDS011;53901;51.466;-2.588;2022-12-07T10:13:35;33.47;;;15.70;;
66970;SDS011;53901;51.466;-2.588;2022-12-07T10:19:24;31.15;;;15.20;;
66970;SDS011;53901;51.466;-2.588;2022-12-07T10:22:12;26.67;;;14.45;;
66970;SDS011;53901;51.466;-2.588;2022-12-07T10:24:39;34.30;;;14.77;;
66970;SDS011;53901;51.466;-2.588;2022-12-07T10:27:20;31.90;;;14.32;;
66970;SDS011;53901;51.466;-2.588;2022-12-07T10:29:48;29.88;;;14.48;;
66970;SDS011;53901;51.466;-2.588;2022-12-07T10:34:40;36.17;;;14.70;;
66970;SDS011;53901;51.466;-2.588;2022-12-07T10:42:09;31.20;;;13.68;;
66970;SDS011;53901;51.466;-2.588;2022-12-07T10:44:45;25.50;;;13.82;;
66970;SDS011;53901;51.466;-2.588;2022-12-07T10:57:53;28.63;;;12.70;;
66970;SDS011;53901;51.466;-2.588;2022-12-07T11:06:47;22.73;;;9.50;;
66970;SDS011;53901;51.466;-2.588;2022-12-07T11:09:43;16.75;;;9.02;;
66970;SDS011;53901;51.466;-2.588;2022-12-07T11:17:44;14.63;;;7.40;;
66970;SDS011;53901;51.466;-2.588;2022-12-07T11:38:57;14.30;;;5.65;;
66970;SDS011;53901;51.466;-2.588;2022-12-07T11:41:33;8.30;;;3.95;;
66970;SDS011;53901;51.466;-2.588;2022-12-07T11:52:27;12.00;;;4.97;;
66970;SDS011;53901;51.466;-2.588;2022-12-07T11:55:21;11.07;;;5.10;;
66970;SDS011;53901;51.466;-2.588;2022-12-07T11:57:56;11.23;;;5.43;;
66970;SDS011;53901;51.466;-2.588;2022-12-07T12:00:28;15.33;;;5.77;;
66970;SDS011;53901;51.466;-2.588;2022-12-07T12:03:01;17.33;;;6.40;;
66970;SDS011;53901;51.466;-2.588;2022-12-07T12:05:32;13.30;;;6.82;;
66970;SDS011;53901;51.466;-2.588;2022-12-07T12:08:15;15.15;;;7.53;;
66970;SDS011;53901;51.466;-2.588;2022-12-07T12:19:28;16.60;;;7.25;;
66970;SDS011;53901;51.466;-2.588;2022-12-07T12:21:36;19.80;;;8.40;;
66970;SDS011;53901;51.466;-2.588;2022-12-07T12:24:22;15.50;;;8.75;;
66970;SDS011;53901;51.466;-2.588;2022-12-07T12:26:51;14.27;;;7.30;;
66970;SDS011;53901;51.466;-2.588;2022-12-07T12:29:23;15.52;;;6.50;;
66970;SDS011;53901;51.466;-2.588;2022-12-07T12:32:04;18.20;;;6.90;;
66970;SDS011;53901;51.466;-2.588;2022-12-07T12:34:33;11.77;;;6.03;;
66970;SDS011;53901;51.466;-2.588;2022-12-07T12:37:14;14.70;;;6.57;;
66970;SDS011;53901;51.466;-2.588;2022-12-07T12:42:49;15.23;;;6.47;;
66970;SDS011;53901;51.466;-2.588;2022-12-07T12:45:37;15.60;;;7.32;;
66970;SDS011;53901;51.466;-2.588;2022-12-07T12:48:09;15.65;;;6.30;;
66970;SDS011;53901;51.466;-2.588;2022-12-07T12:54:04;16.00;;;7.22;;
66970;SDS011;53901;51.466;-2.588;2022-12-07T12:56:35;19.00;;;7.50;;
66970;SDS011;53901;51.466;-2.588;2022-12-07T13:01:51;17.73;;;7.25;;
66970;SDS011;53901;51.466;-2.588;2022-12-07T13:04:33;15.70;;;6.97;;
66970;SDS011;53901;51.466;-2.588;2022-12-07T13:07:08;15.68;;;6.22;;
66970;SDS011;53901;51.466;-2.588;2022-12-07T13:09:36;14.18;;;6.68;;
66970;SDS011;53901;51.466;-2.588;2022-12-07T13:12:03;15.35;;;6.55;;
66970;SDS011;53901;51.466;-2.588;2022-12-07T13:19:57;16.52;;;6.63;;
66970;SDS011;53901;51.466;-2.588;2022-12-07T13:25:09;9.70;;;5.43;;
66970;SDS011;53901;51.466;-2.588;2022-12-07T13:27:37;13.15;;;5.70;;
66970;SDS011;53901;51.466;-2.588;2022-12-07T13:30:38;18.75;;;6.47;;
66970;SDS011;53901;51.466;-2.588;2022-12-07T13:32:57;18.48;;;6.25;;
66970;SDS011;53901;51.466;-2.588;2022-12-07T13:35:34;14.73;;;5.38;;
66970;SDS011;53901;51.466;-2.588;2022-12-07T13:38:16;19.20;;;6.32;;
66970;SDS011;53901;51.466;-2.588;2022-12-07T13:48:46;11.13;;;5.18;;
66970;SDS011;53901;51.466;-2.588;2022-12-07T13:51:19;11.65;;;5.32;;
66970;SDS011;53901;51.466;-2.588;2022-12-07T13:54:08;8.63;;;4.40;;
66970;SDS011;53901;51.466;-2.588;2022-12-07T13:56:37;12.90;;;6.20;;
66970;SDS011;53901;51.466;-2.588;2022-12-07T13:59:14;10.30;;;5.28;;
66970;SDS011;53901;51.466;-2.588;2022-12-07T14:01:43;10.65;;;4.80;;
66970;SDS011;53901;51.466;-2.588;2022-12-07T14:04:25;11.93;;;5.38;;
66970;SDS011;53901;51.466;-2.588;2022-12-07T14:06:55;10.63;;;4.22;;
66970;SDS011;53901;51.466;-2.588;2022-12-07T14:09:22;12.15;;;4.78;;
66970;SDS011;53901;51.466;-2.588;2022-12-07T14:11:50;14.68;;;5.15;;
66970;SDS011;53901;51.466;-2.588;2022-12-07T14:14:22;12.00;;;4.53;;
66970;SDS011;53901;51.466;-2.588;2022-12-07T14:16:56;14.00;;;5.32;;
66970;SDS011;53901;51.466;-2.588;2022-12-07T14:22:24;14.70;;;4.70;;
66970;SDS011;53901;51.466;-2.588;2022-12-07T14:25:00;9.63;;;3.88;;
66970;SDS011;53901;51.466;-2.588;2022-12-07T14:27:30;14.82;;;4.32;;
66970;SDS011;53901;51.466;-2.588;2022-12-07T14:30:00;8.07;;;3.78;;
66970;SDS011;53901;51.466;-2.588;2022-12-07T14:32:29;9.18;;;4.00;;
66970;SDS011;53901;51.466;-2.588;2022-12-07T14:35:15;9.20;;;3.60;;
66970;SDS011;53901;51.466;-2.588;2022-12-07T14:37:42;10.05;;;3.35;;
66970;SDS011;53901;51.466;-2.588;2022-12-07T14:40:12;9.15;;;3.80;;
66970;SDS011;53901;51.466;-2.588;2022-12-07T14:42:43;9.88;;;3.67;;
66970;SDS011;53901;51.466;-2.588;2022-12-07T14:45:15;10.07;;;3.50;;
66970;SDS011;53901;51.466;-2.588;2022-12-07T14:47:43;6.28;;;3.00;;
66970;SDS011;53901;51.466;-2.588;2022-12-07T14:50:11;10.90;;;3.60;;
66970;SDS011;53901;51.466;-2.588;2022-12-07T14:52:38;9.65;;;3.33;;
66970;SDS011;53901;51.466;-2.588;2022-12-07T14:55:04;8.65;;;3.60;;
66970;SDS011;53901;51.466;-2.588;2022-12-07T14:57:30;9.90;;;3.72;;
66970;SDS011;53901;51.466;-2.588;2022-12-07T14:59:55;10.93;;;3.80;;
66970;SDS011;53901;51.466;-2.588;2022-12-07T15:02:21;11.25;;;3.42;;
66970;SDS011;53901;51.466;-2.588;2022-12-07T15:04:46;14.35;;;4.20;;
66970;SDS011;53901;51.466;-2.588;2022-12-07T15:07:18;11.60;;;4.07;;
66970;SDS011;53901;51.466;-2.588;2022-12-07T15:09:45;18.27;;;4.35;;
66970;SDS011;53901;51.466;-2.588;2022-12-07T15:12:10;8.63;;;4.10;;
66970;SDS011;53901;51.466;-2.588;2022-12-07T15:14:36;11.88;;;4.13;;
66970;SDS011;53901;51.466;-2.588;2022-12-07T15:17:01;15.35;;;5.15;;
66970;SDS011;53901;51.466;-2.588;2022-12-07T15:19:26;12.10;;;4.90;;
66970;SDS011;53901;51.466;-2.588;2022-12-07T15:21:52;9.68;;;4.15;;
66970;SDS011;53901;51.466;-2.588;2022-12-07T15:24:18;10.20;;;4.65;;
66970;SDS011;53901;51.466;-2.588;2022-12-07T15:26:44;10.77;;;4.40;;
66970;SDS011;53901;51.466;-2.588;2022-12-07T15:29:10;7.80;;;4.05;;
66970;SDS011;53901;51.466;-2.588;2022-12-07T15:31:35;16.25;;;5.13;;
66970;SDS011;53901;51.466;-2.588;2022-12-07T15:34:01;12.05;;;4.07;;
66970;SDS011;53901;51.466;-2.588;2022-12-07T15:36:28;13.73;;;5.07;;
66970;SDS011;53901;51.466;-2.588;2022-12-07T15:38:56;14.40;;;7.93;;
66970;SDS011;53901;51.466;-2.588;2022-12-07T15:41:21;11.48;;;4.53;;
66970;SDS011;53901;51.466;-2.588;2022-12-07T15:43:47;13.95;;;4.65;;
66970;SDS011;53901;51.466;-2.588;2022-12-07T15:46:32;17.25;;;6.00;;
66970;SDS011;53901;51.466;-2.588;2022-12-07T15:48:58;12.18;;;5.47;;
66970;SDS011;53901;51.466;-2.588;2022-12-07T15:51:25;12.48;;;5.47;;
66970;SDS011;53901;51.466;-2.588;2022-12-07T15:53:50;12.70;;;5.80;;
66970;SDS011;53901;51.466;-2.588;2022-12-07T15:56:16;11.98;;;5.75;;
66970;SDS011;53901;51.466;-2.588;2022-12-07T15:58:42;10.27;;;5.82;;
66970;SDS011;53901;51.466;-2.588;2022-12-07T16:01:11;34.10;;;10.45;;
66970;SDS011;53901;51.466;-2.588;2022-12-07T16:03:37;47.15;;;15.57;;
66970;SDS011;53901;51.466;-2.588;2022-12-07T16:06:02;34.90;;;12.90;;
66970;SDS011;53901;51.466;-2.588;2022-12-07T16:08:27;23.92;;;10.05;;
66970;SDS011;53901;51.466;-2.588;2022-12-07T16:10:53;19.23;;;8.55;;
66970;SDS011;53901;51.466;-2.588;2022-12-07T16:13:18;20.40;;;8.60;;
66970;SDS011;53901;51.466;-2.588;2022-12-07T16:15:44;22.23;;;10.13;;
66970;SDS011;53901;51.466;-2.588;2022-12-07T16:18:09;25.35;;;9.25;;
66970;SDS011;53901;51.466;-2.588;2022-12-07T16:20:35;17.70;;;9.07;;
66970;SDS011;53901;51.466;-2.588;2022-12-07T16:23:00;22.02;;;9.20;;
66970;SDS011;53901;51.466;-2.588;2022-12-07T16:25:26;18.00;;;8.43;;
66970;SDS011;53901;51.466;-2.588;2022-12-07T16:27:53;18.02;;;9.43;;
66970;SDS011;53901;51.466;-2.588;2022-12-07T16:30:19;19.30;;;9.00;;
66970;SDS011;53901;51.466;-2.588;2022-12-07T16:32:44;20.52;;;9.38;;
66970;SDS011;53901;51.466;-2.588;2022-12-07T16:35:10;24.50;;;10.65;;
66970;SDS011;53901;51.466;-2.588;2022-12-07T16:37:36;30.88;;;10.75;;
66970;SDS011;53901;51.466;-2.588;2022-12-07T16:40:01;23.80;;;11.25;;